createdAt,value
2023-04-03T00:00:41.392Z,103770.63
2023-04-03T00:03:09.423Z,103775.66
2023-04-03T00:05:37.041Z,103767.81
2023-04-03T00:08:08.973Z,103767.97
2023-04-03T00:10:37.045Z,103772.13
2023-04-03T00:13:07.035Z,103770.38
2023-04-03T00:15:34.766Z,103766.84
2023-04-03T00:18:02.519Z,103763.44
2023-04-03T00:20:30.288Z,103771.13
2023-04-03T00:22:58.005Z,103767.63
2023-04-03T00:25:25.779Z,103774.25
2023-04-03T00:27:53.595Z,103769.91
2023-04-03T00:30:23.757Z,103773.28
2023-04-03T00:32:52.125Z,103770.78
2023-04-03T00:35:20.663Z,103774.22
2023-04-03T00:37:48.773Z,103776.81
2023-04-03T00:40:17.268Z,103776.56
2023-04-03T00:42:45.768Z,103780.59
2023-04-03T00:45:27.172Z,103782.06
2023-04-03T00:47:55.194Z,103781.88
2023-04-03T00:50:22.908Z,103784.31
2023-04-03T00:52:51.122Z,103786.94
2023-04-03T00:55:18.973Z,103788.44
2023-04-03T00:57:48.071Z,103779.91
2023-04-03T01:00:18.763Z,103775.59
2023-04-03T01:02:47.890Z,103785.81
2023-04-03T01:05:18.477Z,103790.03
2023-04-03T01:07:46.564Z,103786.59
2023-04-03T01:10:16.962Z,103779.81
2023-04-03T01:12:46.709Z,103776.38
2023-04-03T01:15:16.118Z,103777.03
2023-04-03T01:17:44.976Z,103779.66
2023-04-03T01:20:34.058Z,103781.88
2023-04-03T01:23:08.675Z,103783.22
2023-04-03T01:25:37.401Z,103783.22
2023-04-03T01:28:05.641Z,103789.22
2023-04-03T01:30:35.593Z,103788.34
2023-04-03T01:33:05.005Z,103788.81
2023-04-03T01:35:32.709Z,103797.16
2023-04-03T01:38:00.372Z,103786.84
2023-04-03T01:40:28.292Z,103790.25
2023-04-03T01:42:55.958Z,103787.72
2023-04-03T01:45:23.714Z,103789.50
2023-04-03T01:47:51.986Z,103786.31
2023-04-03T01:50:21.135Z,103795.56
2023-04-03T01:52:48.804Z,103803.28
2023-04-03T01:55:16.737Z,103802.34
2023-04-03T01:57:44.487Z,103797.75
2023-04-03T02:00:13.056Z,103795.91
2023-04-03T02:02:40.735Z,103802.47
2023-04-03T02:05:08.956Z,103798.84
2023-04-03T02:07:38.081Z,103805.91
2023-04-03T02:10:06.053Z,103805.09
2023-04-03T02:12:33.740Z,103806.03
2023-04-03T02:15:01.907Z,103804.84
2023-04-03T02:17:29.670Z,103810.72
2023-04-03T02:20:00.195Z,103812.28
2023-04-03T02:22:30.756Z,103813.97
2023-04-03T02:24:59.805Z,103821.41
2023-04-03T02:27:27.526Z,103813.56
2023-04-03T02:29:55.298Z,103819.22
2023-04-03T02:32:23.110Z,103824.06
2023-04-03T02:34:50.856Z,103823.38
2023-04-03T02:37:18.771Z,103817.25
2023-04-03T02:39:46.440Z,103821.56
2023-04-03T02:42:15.800Z,103818.00
2023-04-03T02:44:43.520Z,103817.72
2023-04-03T02:47:11.192Z,103819.59
2023-04-03T02:49:38.901Z,103812.09
2023-04-03T02:52:06.756Z,103820.78
2023-04-03T02:54:34.437Z,103824.25
2023-04-03T02:57:02.280Z,103818.44
2023-04-03T02:59:31.562Z,103817.75
2023-04-03T03:01:59.254Z,103820.06
2023-04-03T03:04:26.967Z,103816.41
2023-04-03T03:06:54.654Z,103822.91
2023-04-03T03:09:22.347Z,103821.00
2023-04-03T03:11:50.009Z,103829.03
2023-04-03T03:14:17.752Z,103831.75
2023-04-03T03:16:46.737Z,103820.66
2023-04-03T03:19:14.427Z,103828.44
2023-04-03T03:21:42.159Z,103825.88
2023-04-03T03:24:09.996Z,103824.16
2023-04-03T03:26:37.932Z,103825.75
2023-04-03T03:29:05.628Z,103826.59
2023-04-03T03:31:33.357Z,103823.16
2023-04-03T03:34:02.581Z,103825.75
2023-04-03T03:36:30.269Z,103819.09
2023-04-03T03:38:57.959Z,103818.44
2023-04-03T03:41:25.559Z,103819.03
2023-04-03T03:43:53.306Z,103821.22
2023-04-03T03:46:21.116Z,103818.44
2023-04-03T03:48:48.762Z,103821.06
2023-04-03T03:51:17.995Z,103820.03
2023-04-03T03:53:45.687Z,103821.56
2023-04-03T03:56:13.361Z,103819.81
2023-04-03T03:58:41.023Z,103824.31
2023-04-03T04:01:09.121Z,103832.28
2023-04-03T04:03:37.061Z,103831.28
2023-04-03T04:06:04.976Z,103829.66
2023-04-03T04:08:34.280Z,103826.06
2023-04-03T04:11:01.895Z,103832.78
2023-04-03T04:13:29.558Z,103832.03
2023-04-03T04:15:57.229Z,103830.34
2023-04-03T04:18:25.104Z,103832.78
2023-04-03T04:20:52.919Z,103837.00
2023-04-03T04:23:20.976Z,103831.06
2023-04-03T04:25:50.334Z,103834.44
2023-04-03T04:28:18.190Z,103832.84
2023-04-03T04:30:46.815Z,103835.41
2023-04-03T04:33:15.189Z,103833.59
2023-04-03T04:35:44.352Z,103836.41
2023-04-03T04:38:12.100Z,103838.25
2023-04-03T04:40:39.773Z,103844.44
2023-04-03T04:43:08.841Z,103839.25
2023-04-03T04:45:36.737Z,103839.16
2023-04-03T04:48:04.685Z,103837.44
2023-04-03T04:50:32.350Z,103835.84
2023-04-03T04:53:00.032Z,103841.75
2023-04-03T04:55:27.720Z,103836.06
2023-04-03T04:57:55.656Z,103835.31
2023-04-03T05:00:24.894Z,103841.63
2023-04-03T05:02:52.609Z,103836.75
2023-04-03T05:05:20.319Z,103834.44
2023-04-03T05:07:48.048Z,103830.22
2023-04-03T05:10:15.693Z,103828.84
2023-04-03T05:12:43.381Z,103827.19
2023-04-03T05:15:11.477Z,103837.41
2023-04-03T05:17:40.552Z,103835.09
2023-04-03T05:20:09.621Z,103835.19
2023-04-03T05:22:37.341Z,103835.31
2023-04-03T05:25:05.254Z,103842.22
2023-04-03T05:27:32.952Z,103832.16
2023-04-03T05:30:00.805Z,103834.97
2023-04-03T05:32:29.117Z,103830.00
2023-04-03T05:35:00.092Z,103840.34
2023-04-03T05:37:28.839Z,103835.41
2023-04-03T05:39:56.846Z,103835.41
2023-04-03T05:42:24.460Z,103841.50
2023-04-03T05:44:52.103Z,103837.38
2023-04-03T05:47:19.826Z,103834.16
2023-04-03T05:49:47.617Z,103834.44
2023-04-03T05:52:20.585Z,103827.75
2023-04-03T05:54:49.301Z,103835.53
2023-04-03T05:57:17.476Z,103834.75
2023-04-03T05:59:45.587Z,103838.38
2023-04-03T06:02:14.680Z,103832.47
2023-04-03T06:04:42.496Z,103833.53
2023-04-03T06:07:13.801Z,103838.75
2023-04-03T06:09:42.790Z,103837.97
2023-04-03T06:12:10.626Z,103831.41
2023-04-03T06:14:38.330Z,103828.22
2023-04-03T06:17:07.135Z,103835.19
2023-04-03T06:19:34.917Z,103832.78
2023-04-03T06:22:02.653Z,103828.13
2023-04-03T06:24:30.410Z,103838.03
2023-04-03T06:26:59.825Z,103833.09
2023-04-03T06:29:27.624Z,103835.81
2023-04-03T06:31:55.468Z,103840.50
2023-04-03T06:34:23.282Z,103838.56
2023-04-03T06:36:51.685Z,103836.25
2023-04-03T06:39:21.974Z,103837.47
2023-04-03T06:41:49.723Z,103842.44
2023-04-03T06:44:18.789Z,103840.72
2023-04-03T06:46:47.581Z,103845.91
2023-04-03T06:49:16.101Z,103841.75
2023-04-03T06:51:43.794Z,103850.47
2023-04-03T06:54:11.532Z,103852.22
2023-04-03T06:56:39.152Z,103848.63
2023-04-03T06:59:06.869Z,103851.13
2023-04-03T07:01:36.247Z,103848.25
2023-04-03T07:04:04.088Z,103842.38
2023-04-03T07:06:32.856Z,103842.00
2023-04-03T07:09:00.515Z,103841.81
2023-04-03T07:11:28.293Z,103834.16
2023-04-03T07:13:56.084Z,103835.94
2023-04-03T07:16:23.782Z,103839.38
2023-04-03T07:18:52.790Z,103828.94
2023-04-03T07:21:20.510Z,103829.22
2023-04-03T07:26:16.951Z,103826.88
2023-04-03T07:28:45.380Z,103827.00
2023-04-03T07:31:14.556Z,103832.47
2023-04-03T07:33:43.039Z,103826.69
2023-04-03T07:36:12.441Z,103830.94
2023-04-03T07:38:40.120Z,103831.84
2023-04-03T07:41:07.973Z,103839.75
2023-04-03T07:43:36.137Z,103833.34
2023-04-03T07:46:06.909Z,103835.13
2023-04-03T07:48:36.054Z,103830.28
2023-04-03T07:51:04.293Z,103828.88
2023-04-03T07:53:33.878Z,103826.63
2023-04-03T07:56:02.594Z,103826.69
2023-04-03T07:58:30.673Z,103829.41
2023-04-03T08:00:58.346Z,103822.66
2023-04-03T08:03:26.119Z,103824.56
2023-04-03T08:05:54.559Z,103818.78
2023-04-03T08:08:23.415Z,103818.75
2023-04-03T08:10:53.504Z,103818.91
2023-04-03T08:13:21.460Z,103816.34
2023-04-03T08:15:49.206Z,103814.75
2023-04-03T08:18:17.266Z,103810.66
2023-04-03T08:20:45.710Z,103815.69
2023-04-03T08:23:13.623Z,103811.59
2023-04-03T08:25:41.906Z,103815.44
2023-04-03T08:28:11.823Z,103816.38
2023-04-03T08:30:41.477Z,103814.69
2023-04-03T08:33:09.593Z,103814.84
2023-04-03T08:35:40.577Z,103811.50
2023-04-03T08:38:08.617Z,103808.16
2023-04-03T08:40:36.518Z,103799.66
2023-04-03T08:43:18.853Z,103799.75
2023-04-03T08:45:48.126Z,103802.47
2023-04-03T08:48:17.713Z,103791.34
2023-04-03T08:50:47.214Z,103798.41
2023-04-03T08:53:16.887Z,103789.03
2023-04-03T08:55:45.845Z,103790.81
2023-04-03T08:58:17.418Z,103794.22
2023-04-03T09:00:47.529Z,103794.25
2023-04-03T09:03:16.170Z,103796.13
2023-04-03T09:05:46.344Z,103791.72
2023-04-03T09:08:18.569Z,103804.00
2023-04-03T09:10:46.265Z,103798.03
2023-04-03T09:13:23.454Z,103795.53
2023-04-03T09:15:51.152Z,103799.06
2023-04-03T09:18:22.103Z,103792.19
2023-04-03T09:20:56.050Z,103797.31
2023-04-03T09:23:27.402Z,103794.84
2023-04-03T09:25:58.910Z,103794.06
2023-04-03T09:28:29.327Z,103785.47
2023-04-03T09:30:58.609Z,103786.38
2023-04-03T09:33:26.591Z,103785.63
2023-04-03T09:35:56.293Z,103791.00
2023-04-03T09:38:25.120Z,103778.22
2023-04-03T09:40:53.751Z,103788.41
2023-04-03T09:43:24.166Z,103778.06
2023-04-03T09:45:53.886Z,103782.44
2023-04-03T09:48:22.477Z,103780.81
2023-04-03T09:50:59.425Z,103773.81
2023-04-03T09:53:37.855Z,103770.50
2023-04-03T09:56:06.684Z,103769.72
2023-04-03T09:58:49.106Z,103759.38
2023-04-03T10:01:28.530Z,103749.94
2023-04-03T10:04:12.450Z,103752.59
2023-04-03T10:06:44.430Z,103747.56
2023-04-03T10:09:20.703Z,103744.97
2023-04-03T10:12:02.180Z,103745.09
2023-04-03T10:14:30.360Z,103739.09
2023-04-03T10:17:04.417Z,103739.13
2023-04-03T10:19:38.961Z,103732.25
2023-04-03T10:22:11.656Z,103726.22
2023-04-03T10:24:46.547Z,103721.13
2023-04-03T10:27:19.232Z,103718.56
2023-04-03T10:29:51.694Z,103716.06
2023-04-03T10:32:32.330Z,103715.22
2023-04-03T10:35:05.531Z,103716.03
2023-04-03T10:37:38.653Z,103705.69
2023-04-03T10:40:13.487Z,103696.38
2023-04-03T10:42:48.297Z,103698.94
2023-04-03T10:45:23.863Z,103686.03
2023-04-03T10:47:59.027Z,103681.75
2023-04-03T10:50:36.034Z,103676.56
2023-04-03T10:53:08.964Z,103676.56
2023-04-03T10:55:39.028Z,103667.09
2023-04-03T10:58:07.395Z,103672.34
2023-04-03T11:00:38.941Z,103670.66
2023-04-03T11:03:11.898Z,103664.69
2023-04-03T11:05:43.225Z,103661.25
2023-04-03T11:08:15.631Z,103657.00
2023-04-03T11:10:44.067Z,103650.97
2023-04-03T11:13:14.562Z,103646.69
2023-04-03T11:15:43.284Z,103654.50
2023-04-03T11:18:15.747Z,103648.44
2023-04-03T11:20:45.173Z,103638.06
2023-04-03T11:23:19.034Z,103641.50
2023-04-03T11:25:49.592Z,103637.25
2023-04-03T11:28:17.341Z,103638.06
2023-04-03T11:30:48.305Z,103628.63
2023-04-03T11:33:27.566Z,103627.75
2023-04-03T11:35:57.797Z,103623.47
2023-04-03T11:38:27.617Z,103629.50
2023-04-03T11:40:56.277Z,103621.75
2023-04-03T11:43:26.566Z,103610.59
2023-04-03T11:45:59.944Z,103626.13
2023-04-03T11:48:49.909Z,103612.31
2023-04-03T11:51:47.900Z,103604.53
2023-04-03T11:54:38.561Z,103609.72
2023-04-03T11:57:40.348Z,103599.38
2023-04-03T12:00:27.124Z,103604.56
2023-04-03T12:02:55.160Z,103606.28
2023-04-03T12:05:31.522Z,103593.38
2023-04-03T12:08:14.049Z,103590.78
2023-04-03T12:10:41.775Z,103590.78
2023-04-03T12:13:17.722Z,103589.91
2023-04-03T12:15:55.815Z,103589.09
2023-04-03T12:18:53.826Z,103583.91
2023-04-03T12:21:23.737Z,103581.31
2023-04-03T12:24:12.179Z,103573.53
2023-04-03T12:26:48.489Z,103582.16
2023-04-03T12:29:19.608Z,103570.06
2023-04-03T12:31:52.691Z,103565.75
2023-04-03T12:34:40.125Z,103564.88
2023-04-03T12:37:14.668Z,103564.00
2023-04-03T12:39:55.038Z,103559.72
2023-04-03T12:42:40.748Z,103551.06
2023-04-03T12:45:15.315Z,103550.22
2023-04-03T12:47:44.416Z,103552.81
2023-04-03T12:50:22.342Z,103548.47
2023-04-03T12:52:53.467Z,103540.69
2023-04-03T12:55:22.745Z,103550.22
2023-04-03T12:57:50.749Z,103545.88
2023-04-03T13:00:22.967Z,103542.44
2023-04-03T13:02:51.029Z,103533.78
2023-04-03T13:05:20.291Z,103542.44
2023-04-03T13:07:52.140Z,103532.91
2023-04-03T13:10:20.899Z,103529.47
2023-04-03T13:12:50.533Z,103539.84
2023-04-03T13:15:19.971Z,103532.91
2023-04-03T13:17:49.563Z,103535.50
2023-04-03T13:20:19.983Z,103529.47
2023-04-03T13:22:52.781Z,103523.41
2023-04-03T13:25:22.472Z,103523.41
2023-04-03T13:27:52.206Z,103518.22
2023-04-03T13:30:31.914Z,103516.47
2023-04-03T13:33:00.748Z,103510.44
2023-04-03T13:35:29.919Z,103507.84
2023-04-03T13:38:00.271Z,103501.78
2023-04-03T13:40:30.160Z,103503.50
2023-04-03T13:43:01.745Z,103506.97
2023-04-03T13:45:30.536Z,103503.50
2023-04-03T13:48:20.240Z,103500.91
2023-04-03T13:51:01.453Z,103496.59
2023-04-03T13:53:31.563Z,103497.47
2023-04-03T13:56:07.326Z,103483.63
2023-04-03T13:58:36.356Z,103490.53
2023-04-03T14:01:09.723Z,103487.94
2023-04-03T14:03:41.877Z,103480.16
2023-04-03T14:06:12.345Z,103480.16
2023-04-03T14:08:43.430Z,103476.72
2023-04-03T14:11:15.327Z,103466.38
2023-04-03T14:13:43.305Z,103465.50
2023-04-03T14:16:16.164Z,103465.47
2023-04-03T14:18:44.342Z,103463.75
2023-04-03T14:21:13.387Z,103470.66
2023-04-03T14:23:42.827Z,103464.59
2023-04-03T14:26:12.750Z,103467.19
2023-04-03T14:28:43.201Z,103455.97
2023-04-03T14:31:12.047Z,103452.50
2023-04-03T14:33:39.826Z,103454.22
2023-04-03T14:36:13.652Z,103448.19
2023-04-03T14:38:43.756Z,103447.34
2023-04-03T14:41:16.896Z,103446.44
2023-04-03T14:43:45.109Z,103439.53
2023-04-03T14:46:14.835Z,103437.84
2023-04-03T14:48:42.795Z,103435.25
2023-04-03T14:51:11.847Z,103430.06
2023-04-03T14:53:40.061Z,103424.88
2023-04-03T14:56:14.387Z,103430.91
2023-04-03T14:58:42.085Z,103420.53
2023-04-03T15:01:11.685Z,103424.00
2023-04-03T15:03:40.028Z,103415.34
2023-04-03T15:06:07.901Z,103404.16
2023-04-03T15:08:35.514Z,103411.06
2023-04-03T15:11:03.133Z,103410.16
2023-04-03T15:13:32.170Z,103409.34
2023-04-03T15:15:59.867Z,103401.56
2023-04-03T15:18:30.869Z,103404.16
2023-04-03T15:20:58.828Z,103392.03
2023-04-03T15:23:27.485Z,103389.50
2023-04-03T15:25:55.731Z,103392.94
2023-04-03T15:28:25.670Z,103388.63
2023-04-03T15:30:55.116Z,103384.31
2023-04-03T15:33:22.864Z,103382.59
2023-04-03T15:35:50.730Z,103376.56
2023-04-03T15:38:18.521Z,103380.00
2023-04-03T15:40:48.017Z,103380.88
2023-04-03T15:43:16.651Z,103367.91
2023-04-03T15:45:44.883Z,103374.81
2023-04-03T15:48:14.443Z,103374.81
2023-04-03T15:50:42.310Z,103365.31
2023-04-03T15:53:10.250Z,103366.19
2023-04-03T15:55:39.214Z,103363.63
2023-04-03T15:58:07.285Z,103363.63
2023-04-03T16:00:35.203Z,103365.34
2023-04-03T16:03:06.385Z,103350.69
2023-04-03T16:05:36.936Z,103356.72
2023-04-03T16:08:04.787Z,103353.28
2023-04-03T16:10:32.622Z,103361.06
2023-04-03T16:13:00.606Z,103358.47
2023-04-03T16:15:28.522Z,103351.53
2023-04-03T16:17:56.576Z,103357.59
2023-04-03T16:20:24.404Z,103358.47
2023-04-03T16:22:53.590Z,103351.56
2023-04-03T16:25:21.777Z,103342.97
2023-04-03T16:27:49.408Z,103350.75
2023-04-03T16:30:17.043Z,103355.03
2023-04-03T16:32:44.845Z,103352.47
2023-04-03T16:35:15.267Z,103352.47
2023-04-03T16:37:42.928Z,103345.59
2023-04-03T16:40:13.099Z,103349.06
2023-04-03T16:42:40.979Z,103336.97
2023-04-03T16:45:09.166Z,103341.28
2023-04-03T16:47:36.897Z,103343.00
2023-04-03T16:50:05.071Z,103340.44
2023-04-03T16:52:32.855Z,103349.06
2023-04-03T16:55:00.535Z,103335.25
2023-04-03T16:57:29.612Z,103337.84
2023-04-03T16:59:57.349Z,103340.41
2023-04-03T17:02:26.711Z,103343.00
2023-04-03T17:04:54.835Z,103336.09
2023-04-03T17:07:22.976Z,103340.41
2023-04-03T17:09:50.750Z,103336.97
2023-04-03T17:12:18.517Z,103335.25
2023-04-03T17:14:47.828Z,103332.66
2023-04-03T17:17:15.919Z,103336.06
2023-04-03T17:19:44.491Z,103336.91
2023-04-03T17:22:12.664Z,103334.31
2023-04-03T17:24:40.578Z,103339.47
2023-04-03T17:27:08.178Z,103336.84
2023-04-03T17:29:35.931Z,103340.25
2023-04-03T17:32:05.138Z,103336.75
2023-04-03T17:34:33.694Z,103341.09
2023-04-03T17:37:01.617Z,103341.03
2023-04-03T17:39:29.326Z,103328.91
2023-04-03T17:41:57.002Z,103336.66
2023-04-03T17:44:24.600Z,103337.44
2023-04-03T17:46:52.292Z,103338.25
2023-04-03T17:49:22.495Z,103342.53
2023-04-03T17:51:50.440Z,103342.44
2023-04-03T17:54:18.158Z,103348.44
2023-04-03T17:56:48.227Z,103339.78
2023-04-03T17:59:16.644Z,103344.06
2023-04-03T18:01:45.248Z,103345.75
2023-04-03T18:04:13.249Z,103342.28
2023-04-03T18:06:43.842Z,103343.94
2023-04-03T18:09:14.704Z,103333.53
2023-04-03T18:11:43.122Z,103336.06
2023-04-03T18:14:11.346Z,103339.50
2023-04-03T18:16:39.157Z,103340.31
2023-04-03T18:19:21.820Z,103335.97
2023-04-03T18:21:52.341Z,103332.47
2023-04-03T18:24:21.167Z,103333.28
2023-04-03T18:26:50.106Z,103327.25
2023-04-03T18:29:18.022Z,103334.03
2023-04-03T18:31:47.483Z,103330.50
2023-04-03T18:34:15.253Z,103338.19
2023-04-03T18:36:42.948Z,103339.03
2023-04-03T18:39:12.065Z,103339.00
2023-04-03T18:41:40.185Z,103328.66
2023-04-03T18:44:09.637Z,103336.31
2023-04-03T18:49:11.430Z,103331.78
2023-04-03T18:51:40.172Z,103327.44
2023-04-03T18:54:09.978Z,103329.13
2023-04-03T18:56:39.675Z,103328.22
2023-04-03T18:59:07.436Z,103321.34
2023-04-03T19:01:35.427Z,103328.94
2023-04-03T19:04:03.365Z,103331.44
2023-04-03T19:06:31.094Z,103324.53
2023-04-03T19:09:00.490Z,103319.28
2023-04-03T19:11:30.213Z,103322.66
2023-04-03T19:14:14.483Z,103321.78
2023-04-03T19:16:43.405Z,103317.44
2023-04-03T19:19:11.235Z,103315.66
2023-04-03T19:21:41.409Z,103313.81
2023-04-03T19:24:09.834Z,103312.88
2023-04-03T19:26:37.620Z,103305.94
2023-04-03T19:29:06.633Z,103314.50
2023-04-03T19:31:35.131Z,103309.31
2023-04-03T19:34:04.013Z,103302.34
2023-04-03T19:36:31.997Z,103297.94
2023-04-03T19:38:59.644Z,103296.16
2023-04-03T19:41:29.344Z,103302.97
2023-04-03T19:43:57.365Z,103297.75
2023-04-03T19:46:27.106Z,103291.72
2023-04-03T19:48:55.023Z,103294.25
2023-04-03T19:51:22.817Z,103285.63
2023-04-03T19:53:50.490Z,103286.47
2023-04-03T19:56:18.263Z,103288.06
2023-04-03T19:58:46.061Z,103287.94
2023-04-03T20:01:13.827Z,103281.97
2023-04-03T20:03:42.981Z,103286.97
2023-04-03T20:06:10.634Z,103285.19
2023-04-03T20:08:39.480Z,103280.00
2023-04-03T20:11:07.151Z,103283.41
2023-04-03T20:13:34.794Z,103279.91
2023-04-03T20:16:03.254Z,103286.81
2023-04-03T20:18:31.315Z,103280.75
2023-04-03T20:21:01.660Z,103278.91
2023-04-03T20:23:29.726Z,103269.44
2023-04-03T20:26:09.173Z,103277.97
2023-04-03T20:28:39.002Z,103268.56
2023-04-03T20:31:07.982Z,103274.50
2023-04-03T20:33:37.208Z,103271.91
2023-04-03T20:36:06.544Z,103267.53
2023-04-03T20:38:34.230Z,103267.50
2023-04-03T20:41:01.895Z,103261.41
2023-04-03T20:43:29.600Z,103269.91
2023-04-03T20:45:57.356Z,103266.50
2023-04-03T20:48:25.100Z,103269.03
2023-04-03T20:50:52.963Z,103270.72
2023-04-03T20:53:22.039Z,103263.81
2023-04-03T20:55:55.900Z,103259.41
2023-04-03T20:58:25.072Z,103261.09
2023-04-03T21:00:52.784Z,103260.91
2023-04-03T21:03:20.683Z,103254.84
2023-04-03T21:05:48.425Z,103259.03
2023-04-03T21:08:36.084Z,103261.47
2023-04-03T21:11:23.702Z,103263.97
2023-04-03T21:14:10.016Z,103254.41
2023-04-03T21:16:38.721Z,103255.22
2023-04-03T21:19:10.748Z,103259.44
2023-04-03T21:21:38.753Z,103258.56
2023-04-03T21:24:10.169Z,103257.47
2023-04-03T21:26:39.340Z,103257.50
2023-04-03T21:29:07.715Z,103255.72
2023-04-03T21:31:52.944Z,103271.09
2023-04-03T21:34:23.520Z,103263.41
2023-04-03T21:36:51.784Z,103269.75
2023-04-03T21:39:19.857Z,103270.31
2023-04-03T21:41:47.504Z,103270.41
2023-04-03T21:44:15.128Z,103269.56
2023-04-03T21:46:43.125Z,103265.34
2023-04-03T21:49:10.897Z,103267.13
2023-04-03T21:51:40.014Z,103262.69
2023-04-03T21:54:07.718Z,103264.38
2023-04-03T21:56:35.324Z,103267.69
2023-04-03T21:59:03.569Z,103264.22
2023-04-03T22:01:32.493Z,103262.44
2023-04-03T22:04:01.840Z,103261.56
2023-04-03T22:06:29.955Z,103264.13
2023-04-03T22:08:59.015Z,103264.88
2023-04-03T22:11:27.189Z,103257.00
2023-04-03T22:13:56.040Z,103259.44
2023-04-03T22:16:24.318Z,103259.34
2023-04-03T22:18:52.968Z,103260.28
2023-04-03T22:21:21.459Z,103255.22
2023-04-03T22:23:49.246Z,103261.13
2023-04-03T22:26:18.393Z,103258.41
2023-04-03T22:28:46.738Z,103248.94
2023-04-03T22:31:14.983Z,103257.47
2023-04-03T22:33:43.314Z,103265.97
2023-04-03T22:36:11.857Z,103249.63
2023-04-03T22:38:40.312Z,103253.19
2023-04-03T22:41:08.875Z,103252.25
2023-04-03T22:43:38.422Z,103247.09
2023-04-03T22:46:06.885Z,103251.19
2023-04-03T22:48:34.622Z,103247.56
2023-04-03T22:51:02.312Z,103252.69
2023-04-03T22:53:30.046Z,103247.69
2023-04-03T22:55:58.113Z,103258.81
2023-04-03T22:58:27.648Z,103253.66
2023-04-03T23:00:57.443Z,103256.19
2023-04-03T23:03:25.567Z,103250.22
2023-04-03T23:05:54.236Z,103244.22
2023-04-03T23:08:21.897Z,103242.53
2023-04-03T23:10:49.575Z,103246.81
2023-04-03T23:13:17.222Z,103239.94
2023-04-03T23:15:44.937Z,103240.66
2023-04-03T23:18:13.967Z,103232.09
2023-04-03T23:20:41.914Z,103230.34
2023-04-03T23:23:10.700Z,103225.13
2023-04-03T23:25:38.652Z,103228.44
2023-04-03T23:28:06.841Z,103221.59
2023-04-03T23:30:34.588Z,103217.25
2023-04-03T23:33:02.335Z,103223.97
2023-04-03T23:35:32.112Z,103215.09
2023-04-03T23:37:59.832Z,103209.03
2023-04-03T23:40:28.095Z,103214.75
2023-04-03T23:42:56.083Z,103206.25
2023-04-03T23:45:23.774Z,103208.88
2023-04-03T23:47:51.486Z,103205.47
2023-04-03T23:50:19.263Z,103198.66
2023-04-03T23:52:48.580Z,103195.97
2023-04-03T23:55:16.341Z,103191.59
2023-04-03T23:57:44.065Z,103188.84
